Hebe — A8OH7 — position and weather

sailwx.info

Track history (hours):
 
Tides and Currents Weather Stations Pressure Air Temp Water Temp Dewpoint Dewpoint Depression Visibility Wind Speed Wind Dir Waves Ship Positions

Hebe

Last reported at 2015-Feb-17 08:12 UTC. Time now 2015-Mar-03 08:51 UTC.
Position S 38°17' E 149°10'.
Warning: this ship's position is 14 days out of date.

Length 220 m; draft 9.1 m.

Type: Ship. MMSI: 636091480.

Date/timePositionNaut miles runAvg speedWind from/ knotsBaromVisibWave heightAir tempDewpointWater temp
2015-Feb-17 08:12S 38°17' E 149°10'1217.7
2015-Feb-17 07:31S 38°24' E 148°58'7817.9
2015-Feb-17 03:08S 39°00' E 147°29'1118.6
2015-Feb-17 02:33S 39°04' E 147°16'1918.6
2015-Feb-17 01:33S 39°10' E 146°53'1818.4
2015-Feb-17 00:33S 39°16' E 146°31'1818.0
2015-Feb-16 23:33S 39°14' E 146°08'1818.3
2015-Feb-16 22:33S 39°04' E 145°48'2618.0
2015-Feb-16 21:06S 38°48' E 145°20'1218.0
2015-Feb-16 20:24S 38°41' E 145°07'1618.2
2015-Feb-16 19:31S 38°32' E 144°50'34 1.4
2015-Feb-15 18:23S 37°58' E 144°54'0 0.0
2015-Feb-15 17:22S 37°58' E 144°54'0 0.0
2015-Feb-15 15:21S 37°58' E 144°54'0 0.0
2015-Feb-15 12:32S 37°58' E 144°54'0 0.0
2015-Feb-15 11:23S 37°58' E 144°54'17 1.1
2015-Feb-14 20:20S 38°15' E 144°55'3210.1
2015-Feb-14 17:10S 38°31' E 144°19'710.4
2015-Feb-14 16:31S 38°36' E 144°14'35 8.5
2015-Feb-14 12:25S 38°58' E 143°39'8 9.6
2015-Feb-14 11:33S 39°02' E 143°30'9 9.0
2015-Feb-14 10:32S 39°01' E 143°18'9 9.1
2015-Feb-14 09:33S 38°60' E 143°06'9 9.5
2015-Feb-14 08:33S 38°58' E 142°54'10 9.7
2015-Feb-14 07:33S 38°55' E 142°43'10 9.9
2015-Feb-14 06:33S 38°53' E 142°30'10 9.8
2015-Feb-14 05:32S 38°49' E 142°18'9 9.6
2015-Feb-14 04:34S 38°47' E 142°06'10 9.5
2015-Feb-14 03:32S 38°44' E 141°55'9 9.7
2015-Feb-14 02:33S 38°39' E 141°44'10 9.7
2015-Feb-14 01:32S 38°35' E 141°33'9 9.5
2015-Feb-14 00:33S 38°32' E 141°21'11 3.4
2015-Feb-13 21:23S 38°28' E 141°09'208 9.4
2015-Feb-12 23:15S 35°53' E 138°15'17 9.9
2015-Feb-12 21:32S 35°39' E 138°03'8 8.4
2015-Feb-12 20:33S 35°30' E 138°02'45 2.1
2015-Feb-11 22:31S 34°48' E 138°21'2511.5
2015-Feb-11 20:23S 35°08' E 138°05'1113.6
2015-Feb-11 19:33S 35°15' E 137°54'12716.8
2015-Feb-11 12:00S 35°24' E 135°18'19115.9 170 / 331023.010.8 3.018.014.818.0
2015-Feb-11 00:00S 35°24' E 131°24'19616.3 180 / 241022.010.8 3.019.014.219.0
2015-Feb-10 12:00S 35°24' E 127°24'20116.7 180 / 151020.010.8 2.520.016.919.0
2015-Feb-10 00:00S 35°18' E 123°18'3715.1 210 / 111021.010.8 2.520.016.920.0
2015-Feb-09 21:33S 35°23' E 122°33'16417.2
2015-Feb-09 12:00S 35°18' E 119°12'20016.7 240 / 121020.010.811.020.016.920.0
2015-Feb-09 00:00S 34°42' E 115°12'   250 / 111020.010.8 1.520.016.921.0
Track history (hours):
 
Tides and Currents Weather Stations Pressure Air Temp Water Temp Dewpoint Dewpoint Depression Visibility Wind Speed Wind Dir Waves Ship Positions

Hebe

Last reported at 2015-Feb-17 08:12 UTC. Time now 2015-Mar-03 08:51 UTC.
Position S 38°17' E 149°10'.
Warning: this ship's position is 14 days out of date.

Length 220 m; draft 9.1 m.

Type: Ship. MMSI: 636091480.

Date/timePositionNaut miles runAvg speedWind from/ knotsBaromVisibWave heightAir tempDewpointWater temp
2015-Feb-17 08:12S 38°17' E 149°10'1217.7
2015-Feb-17 07:31S 38°24' E 148°58'7817.9
2015-Feb-17 03:08S 39°00' E 147°29'1118.6
2015-Feb-17 02:33S 39°04' E 147°16'1918.6
2015-Feb-17 01:33S 39°10' E 146°53'1818.4
2015-Feb-17 00:33S 39°16' E 146°31'1818.0
2015-Feb-16 23:33S 39°14' E 146°08'1818.3
2015-Feb-16 22:33S 39°04' E 145°48'2618.0
2015-Feb-16 21:06S 38°48' E 145°20'1218.0
2015-Feb-16 20:24S 38°41' E 145°07'1618.2
2015-Feb-16 19:31S 38°32' E 144°50'34 1.4
2015-Feb-15 18:23S 37°58' E 144°54'0 0.0
2015-Feb-15 17:22S 37°58' E 144°54'0 0.0
2015-Feb-15 15:21S 37°58' E 144°54'0 0.0
2015-Feb-15 12:32S 37°58' E 144°54'0 0.0
2015-Feb-15 11:23S 37°58' E 144°54'17 1.1
2015-Feb-14 20:20S 38°15' E 144°55'3210.1
2015-Feb-14 17:10S 38°31' E 144°19'710.4
2015-Feb-14 16:31S 38°36' E 144°14'35 8.5
2015-Feb-14 12:25S 38°58' E 143°39'8 9.6
2015-Feb-14 11:33S 39°02' E 143°30'9 9.0
2015-Feb-14 10:32S 39°01' E 143°18'9 9.1
2015-Feb-14 09:33S 38°60' E 143°06'9 9.5
2015-Feb-14 08:33S 38°58' E 142°54'10 9.7
2015-Feb-14 07:33S 38°55' E 142°43'10 9.9
2015-Feb-14 06:33S 38°53' E 142°30'10 9.8
2015-Feb-14 05:32S 38°49' E 142°18'9 9.6
2015-Feb-14 04:34S 38°47' E 142°06'10 9.5
2015-Feb-14 03:32S 38°44' E 141°55'9 9.7
2015-Feb-14 02:33S 38°39' E 141°44'10 9.7
2015-Feb-14 01:32S 38°35' E 141°33'9 9.5
2015-Feb-14 00:33S 38°32' E 141°21'11 3.4
2015-Feb-13 21:23S 38°28' E 141°09'208 9.4
2015-Feb-12 23:15S 35°53' E 138°15'17 9.9
2015-Feb-12 21:32S 35°39' E 138°03'8 8.4
2015-Feb-12 20:33S 35°30' E 138°02'45 2.1
2015-Feb-11 22:31S 34°48' E 138°21'2511.5
2015-Feb-11 20:23S 35°08' E 138°05'1113.6
2015-Feb-11 19:33S 35°15' E 137°54'12716.8
2015-Feb-11 12:00S 35°24' E 135°18'19115.9 170 / 331023.010.8 3.018.014.818.0
2015-Feb-11 00:00S 35°24' E 131°24'19616.3 180 / 241022.010.8 3.019.014.219.0
2015-Feb-10 12:00S 35°24' E 127°24'20116.7 180 / 151020.010.8 2.520.016.919.0
2015-Feb-10 00:00S 35°18' E 123°18'3715.1 210 / 111021.010.8 2.520.016.920.0
2015-Feb-09 21:33S 35°23' E 122°33'16417.2
2015-Feb-09 12:00S 35°18' E 119°12'20016.7 240 / 121020.010.811.020.016.920.0
2015-Feb-09 00:00S 34°42' E 115°12'   250 / 111020.010.8 1.520.016.921.0

Dump ship's entire track history